KLAN

Capital Region International Airport

Airport
ICAO code
KLAN
Summary
ICAO Region
NAM
ICAO Territory
Location

Lansing, Michigan,

Coordinates
42° 46' 30" N , 84° 35' 22" W
KCC
Dfb
Airport CFIT
Altimeter Temperature Error Correction
Airport LOS
Parallel Runway Operation
Airport WX
Cumulonimbus
Metar
Observation
KLAN 081915Z 24018G23KT 10SM BKN029 OVC036 28/22 A2988 RMK AO2 PK WND 26030/1859 T02830217
Station
Lansing, Capital City Airport
Date/Time
2022-08-08 19:15:00
Wind direction
240°
Wind speed
18 kts
Lowest cloud amount
broken clouds
Temperature
28.3°C
Dew point
21.7°C
Humidity
67%
Weather condition
n/a

Description

Capital Region International Airport, formerly known as Lansing Capital City Airport, is a public airport located 5 km northwest of downtown Lansing in DeWitt Township, Michigan.

Climatology

Humid Continental climate (Köppen climate classification Dfb) - Variable weather patterns and a large seasonal temperature variance. Summers are often warm and humid with frequent thunderstorms and winters can be very cold with frequent snowfall and persistent snow cover.

Runways

Designator Length Width Surface Rops
10L/28R 1098 23 ASP Yes/Yes
6/24 1524 37 PEM Yes/Yes
10R/28L 2210 46 ASP Yes/Yes

Airport map

Aerial View

SKYbrary Partners:

Safety knowledge contributed by: